Airfield :
LOGIN :

Register | Disclaimer

   EN    FR    IT 

 










Legend :    VFR   Marginal VFR   IFR   Intensive IFR   Very Intensive IFR
Visi :
Ceiling :
>= 8 km
>= 3000ft
5 to 8 km
1000 to 3000 ft
1500m to 5 km
500 to 1000 ft
800 to 1500m
200 to 500 ft
< 800m
< 200 ft
Symbols :   Thunderstorms  Fog  Heavy snow  Heavy precipitations  Wind > 20 kt
SIGMETs :     Misc.  Thunderstorms  Icing  Turbulence  Mountain Waves  Volcanic Ashes







- Airport Elevation : 1455 ft


ETIH - Hohenfels Army Air Field

CURRENT METAR :
  • 251158Z AUTO 27011G16KT 9999 FEW060 14/03 A2974 RMK AO2 SLP079 58001

EXPIRED METARs :
  • 251058Z AUTO 27010G17KT 230V290 9999 FEW085 SCT190 14/03 A2974 RMK AO2 SLP079
  • 250958Z AUTO 25007G15KT 190V310 9999 BKN075 BKN095 13/03 A2974 RMK AO2 SLP077

TAF TAF ETIH
Valid from the 25 at 05:00 until the 26 at 11:00 UTC


250504Z 2505/2611 24009KT 9999 BKN050 QNH2968INS
BECMG 2509/2510 26012G18KT 9999 FEW020 BKN040 QNH2966INS
BECMG 2515/2516 33009KT 8000 -RA BKN015 OVC030 620809 621701 QNH2966INS
BECMG 2523/2524 36009KT 5000 -RA BR BKN010 OVC020 620509 621404 QNH2968INS
TEMPO 2601/2605 BKN005 OVC009
BECMG 2610/2611 03009KT 8000 -RA BKN015 OVC020 620509 621404 QNH2978INS TX14/2514Z TNM02/2604Z
No reported NOTAMs for that airfield.



MET'MAP, your aeronautical weather chart ! - Copyright ORBIFLY December 2007 - Disclaimer

ORBIFLY MET'MAP TEAM :

Programming & Development : Alexandra Zaïnal
Concept & Development : Baudouin d'Aumeries
Co-Development & Prog : Marc-Olivier Méhu
Technical & hardware support : Manuel Goepfert

Contact : metmap@orbifly.com




SOURCES & CREDITS :

   NOAA